sensor_id;sensor_type;location;lat;lon;timestamp;P1;durP1;ratioP1;P2;durP2;ratioP2
68993;SDS011;56054;50.968;5.816;2023-08-12T00:01:12;21.58;;;12.73;;
68993;SDS011;56054;50.968;5.816;2023-08-12T00:04:19;22.40;;;13.52;;
68993;SDS011;56054;50.968;5.816;2023-08-12T00:07:26;22.85;;;13.07;;
68993;SDS011;56054;50.968;5.816;2023-08-12T00:10:33;18.20;;;12.60;;
68993;SDS011;56054;50.968;5.816;2023-08-12T00:13:40;20.52;;;14.65;;
68993;SDS011;56054;50.968;5.816;2023-08-12T00:16:47;18.73;;;14.10;;
68993;SDS011;56054;50.968;5.816;2023-08-12T00:19:54;25.35;;;14.80;;
68993;SDS011;56054;50.968;5.816;2023-08-12T00:23:01;24.33;;;14.48;;
68993;SDS011;56054;50.968;5.816;2023-08-12T00:26:08;23.95;;;14.93;;
68993;SDS011;56054;50.968;5.816;2023-08-12T00:29:15;25.00;;;13.52;;
68993;SDS011;56054;50.968;5.816;2023-08-12T00:32:22;26.52;;;15.40;;
68993;SDS011;56054;50.968;5.816;2023-08-12T00:35:29;25.90;;;13.85;;
68993;SDS011;56054;50.968;5.816;2023-08-12T00:38:36;24.92;;;12.13;;
68993;SDS011;56054;50.968;5.816;2023-08-12T00:41:45;25.17;;;13.20;;
68993;SDS011;56054;50.968;5.816;2023-08-12T00:44:54;25.02;;;12.80;;
68993;SDS011;56054;50.968;5.816;2023-08-12T00:48:03;25.85;;;13.68;;
68993;SDS011;56054;50.968;5.816;2023-08-12T00:51:10;22.45;;;12.40;;
68993;SDS011;56054;50.968;5.816;2023-08-12T00:54:17;17.20;;;11.80;;
68993;SDS011;56054;50.968;5.816;2023-08-12T00:57:26;20.88;;;13.57;;
68993;SDS011;56054;50.968;5.816;2023-08-12T01:00:33;22.23;;;13.68;;
68993;SDS011;56054;50.968;5.816;2023-08-12T01:03:41;23.38;;;12.80;;
68993;SDS011;56054;50.968;5.816;2023-08-12T01:06:47;21.10;;;13.75;;
68993;SDS011;56054;50.968;5.816;2023-08-12T01:09:54;27.15;;;14.07;;
68993;SDS011;56054;50.968;5.816;2023-08-12T01:13:19;21.98;;;12.68;;
68993;SDS011;56054;50.968;5.816;2023-08-12T01:16:37;20.10;;;13.70;;
68993;SDS011;56054;50.968;5.816;2023-08-12T01:19:48;26.83;;;13.68;;
68993;SDS011;56054;50.968;5.816;2023-08-12T01:22:57;27.90;;;16.20;;
68993;SDS011;56054;50.968;5.816;2023-08-12T01:26:20;22.75;;;15.00;;
68993;SDS011;56054;50.968;5.816;2023-08-12T01:29:27;30.05;;;15.60;;
68993;SDS011;56054;50.968;5.816;2023-08-12T01:32:37;24.05;;;14.85;;
68993;SDS011;56054;50.968;5.816;2023-08-12T01:35:50;22.63;;;15.30;;
68993;SDS011;56054;50.968;5.816;2023-08-12T01:39:01;22.42;;;15.65;;
68993;SDS011;56054;50.968;5.816;2023-08-12T01:42:09;23.92;;;16.40;;
68993;SDS011;56054;50.968;5.816;2023-08-12T01:45:18;21.95;;;16.48;;
68993;SDS011;56054;50.968;5.816;2023-08-12T01:48:24;29.40;;;16.52;;
68993;SDS011;56054;50.968;5.816;2023-08-12T01:51:31;30.05;;;17.45;;
68993;SDS011;56054;50.968;5.816;2023-08-12T01:54:39;28.25;;;15.55;;
68993;SDS011;56054;50.968;5.816;2023-08-12T01:57:46;27.30;;;17.27;;
68993;SDS011;56054;50.968;5.816;2023-08-12T02:00:53;28.75;;;16.63;;
68993;SDS011;56054;50.968;5.816;2023-08-12T02:04:02;29.88;;;19.08;;
68993;SDS011;56054;50.968;5.816;2023-08-12T02:07:10;28.30;;;17.65;;
68993;SDS011;56054;50.968;5.816;2023-08-12T02:10:17;25.58;;;17.27;;
68993;SDS011;56054;50.968;5.816;2023-08-12T02:13:27;25.27;;;16.00;;
68993;SDS011;56054;50.968;5.816;2023-08-12T02:16:34;23.08;;;16.52;;
68993;SDS011;56054;50.968;5.816;2023-08-12T02:19:41;27.33;;;17.05;;
68993;SDS011;56054;50.968;5.816;2023-08-12T02:22:48;23.23;;;15.55;;
68993;SDS011;56054;50.968;5.816;2023-08-12T02:25:55;26.80;;;16.17;;
68993;SDS011;56054;50.968;5.816;2023-08-12T02:29:02;27.02;;;16.17;;
68993;SDS011;56054;50.968;5.816;2023-08-12T02:32:16;20.52;;;14.57;;
68993;SDS011;56054;50.968;5.816;2023-08-12T02:35:24;26.77;;;17.40;;
68993;SDS011;56054;50.968;5.816;2023-08-12T02:38:31;24.95;;;16.10;;
68993;SDS011;56054;50.968;5.816;2023-08-12T02:41:38;22.08;;;14.63;;
68993;SDS011;56054;50.968;5.816;2023-08-12T02:44:45;28.20;;;15.63;;
68993;SDS011;56054;50.968;5.816;2023-08-12T02:47:55;26.92;;;16.02;;
68993;SDS011;56054;50.968;5.816;2023-08-12T02:51:02;27.95;;;17.27;;
68993;SDS011;56054;50.968;5.816;2023-08-12T02:54:09;26.15;;;17.17;;
68993;SDS011;56054;50.968;5.816;2023-08-12T02:57:16;23.85;;;16.98;;
68993;SDS011;56054;50.968;5.816;2023-08-12T03:00:23;28.38;;;17.20;;
68993;SDS011;56054;50.968;5.816;2023-08-12T03:03:30;24.30;;;15.93;;
68993;SDS011;56054;50.968;5.816;2023-08-12T03:06:37;21.83;;;15.27;;
68993;SDS011;56054;50.968;5.816;2023-08-12T03:09:44;26.88;;;16.73;;
68993;SDS011;56054;50.968;5.816;2023-08-12T03:12:53;28.25;;;16.63;;
68993;SDS011;56054;50.968;5.816;2023-08-12T03:16:00;25.00;;;16.42;;
68993;SDS011;56054;50.968;5.816;2023-08-12T03:19:07;30.38;;;17.23;;
68993;SDS011;56054;50.968;5.816;2023-08-12T03:22:15;29.25;;;17.00;;
68993;SDS011;56054;50.968;5.816;2023-08-12T03:25:22;28.40;;;15.88;;
68993;SDS011;56054;50.968;5.816;2023-08-12T03:28:30;26.00;;;15.93;;
68993;SDS011;56054;50.968;5.816;2023-08-12T03:31:37;24.40;;;15.27;;
68993;SDS011;56054;50.968;5.816;2023-08-12T03:34:44;26.85;;;15.82;;
68993;SDS011;56054;50.968;5.816;2023-08-12T03:37:51;23.67;;;15.55;;
68993;SDS011;56054;50.968;5.816;2023-08-12T03:40:59;28.65;;;14.95;;
68993;SDS011;56054;50.968;5.816;2023-08-12T03:44:07;22.17;;;14.73;;
68993;SDS011;56054;50.968;5.816;2023-08-12T03:47:14;23.60;;;14.52;;
68993;SDS011;56054;50.968;5.816;2023-08-12T03:50:22;21.23;;;13.18;;
68993;SDS011;56054;50.968;5.816;2023-08-12T03:53:28;24.17;;;14.57;;
68993;SDS011;56054;50.968;5.816;2023-08-12T03:56:35;20.50;;;14.85;;
68993;SDS011;56054;50.968;5.816;2023-08-12T03:59:43;23.08;;;14.85;;
68993;SDS011;56054;50.968;5.816;2023-08-12T04:02:50;22.55;;;13.55;;
68993;SDS011;56054;50.968;5.816;2023-08-12T04:05:57;19.85;;;13.48;;
68993;SDS011;56054;50.968;5.816;2023-08-12T04:09:04;21.80;;;13.85;;
68993;SDS011;56054;50.968;5.816;2023-08-12T04:12:11;21.02;;;14.55;;
68993;SDS011;56054;50.968;5.816;2023-08-12T04:15:18;26.23;;;13.68;;
68993;SDS011;56054;50.968;5.816;2023-08-12T04:18:25;19.45;;;12.93;;
68993;SDS011;56054;50.968;5.816;2023-08-12T04:21:34;19.77;;;12.02;;
68993;SDS011;56054;50.968;5.816;2023-08-12T04:24:40;23.90;;;13.27;;
68993;SDS011;56054;50.968;5.816;2023-08-12T04:27:48;17.63;;;12.52;;
68993;SDS011;56054;50.968;5.816;2023-08-12T04:30:55;19.27;;;12.73;;
68993;SDS011;56054;50.968;5.816;2023-08-12T04:34:03;21.90;;;12.43;;
68993;SDS011;56054;50.968;5.816;2023-08-12T04:37:09;16.73;;;12.05;;
68993;SDS011;56054;50.968;5.816;2023-08-12T04:40:17;19.42;;;13.02;;
68993;SDS011;56054;50.968;5.816;2023-08-12T04:43:25;21.92;;;12.52;;
68993;SDS011;56054;50.968;5.816;2023-08-12T04:46:33;21.83;;;13.52;;
68993;SDS011;56054;50.968;5.816;2023-08-12T04:49:40;19.13;;;13.23;;
68993;SDS011;56054;50.968;5.816;2023-08-12T04:52:48;20.10;;;11.93;;
68993;SDS011;56054;50.968;5.816;2023-08-12T04:55:55;17.48;;;11.38;;
68993;SDS011;56054;50.968;5.816;2023-08-12T04:59:02;17.90;;;8.80;;
68993;SDS011;56054;50.968;5.816;2023-08-12T05:02:08;11.65;;;6.72;;
68993;SDS011;56054;50.968;5.816;2023-08-12T05:05:15;9.20;;;6.47;;
68993;SDS011;56054;50.968;5.816;2023-08-12T05:08:25;10.73;;;6.03;;
68993;SDS011;56054;50.968;5.816;2023-08-12T05:11:32;7.45;;;5.00;;
68993;SDS011;56054;50.968;5.816;2023-08-12T05:14:40;10.23;;;4.88;;
68993;SDS011;56054;50.968;5.816;2023-08-12T05:17:46;11.43;;;4.45;;
68993;SDS011;56054;50.968;5.816;2023-08-12T05:20:56;5.20;;;3.45;;
68993;SDS011;56054;50.968;5.816;2023-08-12T05:24:03;7.97;;;3.08;;
68993;SDS011;56054;50.968;5.816;2023-08-12T05:27:10;9.85;;;3.00;;
68993;SDS011;56054;50.968;5.816;2023-08-12T05:30:17;4.80;;;2.80;;
68993;SDS011;56054;50.968;5.816;2023-08-12T05:33:24;5.47;;;3.00;;
68993;SDS011;56054;50.968;5.816;2023-08-12T05:36:31;6.20;;;2.92;;
68993;SDS011;56054;50.968;5.816;2023-08-12T05:39:38;8.40;;;3.00;;
68993;SDS011;56054;50.968;5.816;2023-08-12T05:42:45;4.35;;;2.78;;
68993;SDS011;56054;50.968;5.816;2023-08-12T05:45:52;7.72;;;2.63;;
68993;SDS011;56054;50.968;5.816;2023-08-12T05:48:59;3.67;;;2.53;;
68993;SDS011;56054;50.968;5.816;2023-08-12T05:52:06;5.22;;;2.50;;
68993;SDS011;56054;50.968;5.816;2023-08-12T05:55:13;4.50;;;2.20;;
68993;SDS011;56054;50.968;5.816;2023-08-12T05:58:23;4.20;;;2.45;;
68993;SDS011;56054;50.968;5.816;2023-08-12T06:01:30;5.70;;;2.10;;
68993;SDS011;56054;50.968;5.816;2023-08-12T06:04:37;2.90;;;2.00;;
68993;SDS011;56054;50.968;5.816;2023-08-12T06:07:44;2.30;;;1.52;;
68993;SDS011;56054;50.968;5.816;2023-08-12T06:10:51;4.72;;;2.10;;
68993;SDS011;56054;50.968;5.816;2023-08-12T06:13:58;5.10;;;1.95;;
68993;SDS011;56054;50.968;5.816;2023-08-12T06:17:13;2.95;;;1.98;;
68993;SDS011;56054;50.968;5.816;2023-08-12T06:20:20;3.00;;;1.90;;
68993;SDS011;56054;50.968;5.816;2023-08-12T06:23:27;4.80;;;2.03;;
68993;SDS011;56054;50.968;5.816;2023-08-12T06:26:34;2.72;;;1.80;;
68993;SDS011;56054;50.968;5.816;2023-08-12T06:29:41;4.25;;;1.98;;
68993;SDS011;56054;50.968;5.816;2023-08-12T06:32:48;3.20;;;2.03;;
68993;SDS011;56054;50.968;5.816;2023-08-12T06:35:55;4.03;;;1.77;;
68993;SDS011;56054;50.968;5.816;2023-08-12T06:39:03;2.35;;;1.50;;
68993;SDS011;56054;50.968;5.816;2023-08-12T06:42:09;2.72;;;1.38;;
68993;SDS011;56054;50.968;5.816;2023-08-12T06:45:18;2.35;;;1.60;;
68993;SDS011;56054;50.968;5.816;2023-08-12T06:48:25;6.97;;;1.85;;
68993;SDS011;56054;50.968;5.816;2023-08-12T06:51:33;3.33;;;1.50;;
68993;SDS011;56054;50.968;5.816;2023-08-12T06:54:39;2.75;;;1.63;;
68993;SDS011;56054;50.968;5.816;2023-08-12T06:57:46;4.10;;;1.40;;
68993;SDS011;56054;50.968;5.816;2023-08-12T07:00:53;4.82;;;1.85;;
68993;SDS011;56054;50.968;5.816;2023-08-12T07:04:00;2.33;;;1.60;;
68993;SDS011;56054;50.968;5.816;2023-08-12T07:07:07;2.88;;;1.60;;
68993;SDS011;56054;50.968;5.816;2023-08-12T07:10:14;3.05;;;1.52;;
68993;SDS011;56054;50.968;5.816;2023-08-12T07:13:21;2.58;;;1.38;;
68993;SDS011;56054;50.968;5.816;2023-08-12T07:16:28;4.57;;;1.90;;
68993;SDS011;56054;50.968;5.816;2023-08-12T07:19:35;4.97;;;1.95;;
68993;SDS011;56054;50.968;5.816;2023-08-12T07:22:43;3.78;;;1.95;;
68993;SDS011;56054;50.968;5.816;2023-08-12T07:25:49;2.67;;;1.85;;
68993;SDS011;56054;50.968;5.816;2023-08-12T07:28:56;5.32;;;2.13;;
68993;SDS011;56054;50.968;5.816;2023-08-12T07:32:04;3.50;;;1.98;;
68993;SDS011;56054;50.968;5.816;2023-08-12T07:35:10;4.00;;;2.35;;
68993;SDS011;56054;50.968;5.816;2023-08-12T07:38:17;3.85;;;1.70;;
68993;SDS011;56054;50.968;5.816;2023-08-12T07:41:24;3.55;;;1.92;;
68993;SDS011;56054;50.968;5.816;2023-08-12T07:44:32;3.05;;;2.03;;
68993;SDS011;56054;50.968;5.816;2023-08-12T07:47:39;5.00;;;2.10;;
68993;SDS011;56054;50.968;5.816;2023-08-12T07:50:46;3.40;;;1.98;;
68993;SDS011;56054;50.968;5.816;2023-08-12T07:53:52;4.28;;;2.03;;
68993;SDS011;56054;50.968;5.816;2023-08-12T07:57:00;2.42;;;1.73;;
68993;SDS011;56054;50.968;5.816;2023-08-12T08:00:07;3.17;;;2.22;;
68993;SDS011;56054;50.968;5.816;2023-08-12T08:03:14;2.50;;;1.88;;
68993;SDS011;56054;50.968;5.816;2023-08-12T08:06:22;4.20;;;2.03;;
68993;SDS011;56054;50.968;5.816;2023-08-12T08:09:28;4.63;;;1.83;;
68993;SDS011;56054;50.968;5.816;2023-08-12T08:12:36;4.47;;;2.05;;
68993;SDS011;56054;50.968;5.816;2023-08-12T08:15:43;5.70;;;2.20;;
68993;SDS011;56054;50.968;5.816;2023-08-12T08:18:50;4.60;;;2.17;;
68993;SDS011;56054;50.968;5.816;2023-08-12T08:21:57;3.05;;;2.33;;
68993;SDS011;56054;50.968;5.816;2023-08-12T08:25:04;4.75;;;2.20;;
68993;SDS011;56054;50.968;5.816;2023-08-12T08:28:10;6.20;;;2.35;;
68993;SDS011;56054;50.968;5.816;2023-08-12T08:31:18;4.82;;;2.60;;
68993;SDS011;56054;50.968;5.816;2023-08-12T08:34:31;3.22;;;2.10;;
68993;SDS011;56054;50.968;5.816;2023-08-12T08:37:40;3.10;;;2.10;;
68993;SDS011;56054;50.968;5.816;2023-08-12T08:40:48;4.35;;;2.20;;
68993;SDS011;56054;50.968;5.816;2023-08-12T08:43:56;4.65;;;1.88;;
68993;SDS011;56054;50.968;5.816;2023-08-12T08:47:09;4.75;;;1.63;;
68993;SDS011;56054;50.968;5.816;2023-08-12T08:50:17;3.55;;;1.95;;
68993;SDS011;56054;50.968;5.816;2023-08-12T08:53:27;2.95;;;1.55;;
68993;SDS011;56054;50.968;5.816;2023-08-12T08:56:35;4.60;;;1.85;;
68993;SDS011;56054;50.968;5.816;2023-08-12T08:59:44;4.93;;;2.10;;
68993;SDS011;56054;50.968;5.816;2023-08-12T09:02:51;2.63;;;2.03;;
68993;SDS011;56054;50.968;5.816;2023-08-12T09:05:59;2.03;;;1.40;;
68993;SDS011;56054;50.968;5.816;2023-08-12T09:09:07;2.55;;;1.70;;
68993;SDS011;56054;50.968;5.816;2023-08-12T09:12:19;1.80;;;1.40;;
68993;SDS011;56054;50.968;5.816;2023-08-12T09:15:27;2.53;;;1.30;;
68993;SDS011;56054;50.968;5.816;2023-08-12T09:18:34;1.77;;;1.10;;
68993;SDS011;56054;50.968;5.816;2023-08-12T09:21:41;2.90;;;0.95;;
68993;SDS011;56054;50.968;5.816;2023-08-12T09:24:49;1.80;;;1.10;;
68993;SDS011;56054;50.968;5.816;2023-08-12T09:28:00;5.95;;;0.98;;
68993;SDS011;56054;50.968;5.816;2023-08-12T09:31:08;0.80;;;0.65;;
68993;SDS011;56054;50.968;5.816;2023-08-12T09:34:28;1.15;;;0.88;;
68993;SDS011;56054;50.968;5.816;2023-08-12T09:37:35;1.52;;;0.65;;
68993;SDS011;56054;50.968;5.816;2023-08-12T09:40:42;1.05;;;0.60;;
68993;SDS011;56054;50.968;5.816;2023-08-12T09:43:50;0.80;;;0.68;;
68993;SDS011;56054;50.968;5.816;2023-08-12T09:46:58;1.08;;;0.60;;
68993;SDS011;56054;50.968;5.816;2023-08-12T09:50:05;0.88;;;0.77;;
68993;SDS011;56054;50.968;5.816;2023-08-12T09:53:12;2.15;;;0.90;;
68993;SDS011;56054;50.968;5.816;2023-08-12T09:56:19;1.10;;;0.95;;
68993;SDS011;56054;50.968;5.816;2023-08-12T09:59:31;2.72;;;1.02;;
68993;SDS011;56054;50.968;5.816;2023-08-12T10:02:39;1.00;;;0.82;;
68993;SDS011;56054;50.968;5.816;2023-08-12T10:05:47;1.55;;;0.85;;
68993;SDS011;56054;50.968;5.816;2023-08-12T10:08:54;0.95;;;0.77;;
68993;SDS011;56054;50.968;5.816;2023-08-12T10:12:01;0.63;;;0.60;;
68993;SDS011;56054;50.968;5.816;2023-08-12T10:15:08;1.88;;;0.85;;
68993;SDS011;56054;50.968;5.816;2023-08-12T10:18:18;0.95;;;0.70;;
68993;SDS011;56054;50.968;5.816;2023-08-12T10:21:26;0.95;;;0.65;;
68993;SDS011;56054;50.968;5.816;2023-08-12T10:24:34;1.20;;;0.60;;
68993;SDS011;56054;50.968;5.816;2023-08-12T10:27:43;3.33;;;0.50;;
68993;SDS011;56054;50.968;5.816;2023-08-12T10:30:50;0.73;;;0.52;;
68993;SDS011;56054;50.968;5.816;2023-08-12T10:33:58;0.80;;;0.50;;
68993;SDS011;56054;50.968;5.816;2023-08-12T10:37:05;1.38;;;0.50;;
68993;SDS011;56054;50.968;5.816;2023-08-12T10:40:21;0.90;;;0.50;;
68993;SDS011;56054;50.968;5.816;2023-08-12T10:43:29;1.85;;;0.65;;
68993;SDS011;56054;50.968;5.816;2023-08-12T10:46:56;2.55;;;0.65;;
68993;SDS011;56054;50.968;5.816;2023-08-12T10:50:05;1.85;;;0.50;;
68993;SDS011;56054;50.968;5.816;2023-08-12T10:53:23;0.47;;;0.28;;
68993;SDS011;56054;50.968;5.816;2023-08-12T10:57:03;4.15;;;0.40;;
68993;SDS011;56054;50.968;5.816;2023-08-12T11:00:13;0.93;;;0.40;;
68993;SDS011;56054;50.968;5.816;2023-08-12T11:03:21;3.30;;;0.68;;
68993;SDS011;56054;50.968;5.816;2023-08-12T11:06:29;1.48;;;0.77;;
68993;SDS011;56054;50.968;5.816;2023-08-12T11:09:37;1.30;;;0.82;;
68993;SDS011;56054;50.968;5.816;2023-08-12T11:12:53;1.55;;;0.80;;
68993;SDS011;56054;50.968;5.816;2023-08-12T11:16:06;6.03;;;1.23;;
68993;SDS011;56054;50.968;5.816;2023-08-12T11:19:14;3.65;;;1.20;;
68993;SDS011;56054;50.968;5.816;2023-08-12T11:22:21;1.55;;;0.80;;
68993;SDS011;56054;50.968;5.816;2023-08-12T11:25:29;2.15;;;1.00;;
68993;SDS011;56054;50.968;5.816;2023-08-12T11:28:37;1.00;;;0.77;;
68993;SDS011;56054;50.968;5.816;2023-08-12T11:31:44;5.07;;;1.00;;
68993;SDS011;56054;50.968;5.816;2023-08-12T11:34:51;3.40;;;0.98;;
68993;SDS011;56054;50.968;5.816;2023-08-12T11:37:58;2.17;;;1.10;;
68993;SDS011;56054;50.968;5.816;2023-08-12T11:41:05;2.15;;;1.10;;
68993;SDS011;56054;50.968;5.816;2023-08-12T11:44:15;4.35;;;1.70;;
68993;SDS011;56054;50.968;5.816;2023-08-12T11:47:22;1.23;;;0.90;;
68993;SDS011;56054;50.968;5.816;2023-08-12T11:50:29;1.45;;;0.80;;
68993;SDS011;56054;50.968;5.816;2023-08-12T11:53:36;1.67;;;0.55;;
68993;SDS011;56054;50.968;5.816;2023-08-12T11:56:43;1.02;;;0.80;;
68993;SDS011;56054;50.968;5.816;2023-08-12T11:59:50;3.10;;;1.08;;
68993;SDS011;56054;50.968;5.816;2023-08-12T12:02:57;2.65;;;1.10;;
68993;SDS011;56054;50.968;5.816;2023-08-12T12:06:04;1.88;;;1.05;;
68993;SDS011;56054;50.968;5.816;2023-08-12T12:09:11;3.75;;;1.15;;
68993;SDS011;56054;50.968;5.816;2023-08-12T12:12:21;2.42;;;1.55;;
68993;SDS011;56054;50.968;5.816;2023-08-12T12:15:29;2.08;;;1.20;;
68993;SDS011;56054;50.968;5.816;2023-08-12T12:18:36;3.35;;;1.35;;
68993;SDS011;56054;50.968;5.816;2023-08-12T12:21:44;6.20;;;1.35;;
68993;SDS011;56054;50.968;5.816;2023-08-12T12:24:53;4.53;;;1.63;;
68993;SDS011;56054;50.968;5.816;2023-08-12T12:28:00;2.13;;;1.60;;
68993;SDS011;56054;50.968;5.816;2023-08-12T12:31:07;4.90;;;1.83;;
68993;SDS011;56054;50.968;5.816;2023-08-12T12:34:14;5.22;;;2.13;;
68993;SDS011;56054;50.968;5.816;2023-08-12T12:37:21;6.72;;;2.17;;
68993;SDS011;56054;50.968;5.816;2023-08-12T12:40:28;5.50;;;1.77;;
68993;SDS011;56054;50.968;5.816;2023-08-12T12:43:35;4.32;;;1.85;;
68993;SDS011;56054;50.968;5.816;2023-08-12T12:46:42;2.83;;;1.63;;
68993;SDS011;56054;50.968;5.816;2023-08-12T12:49:49;3.08;;;1.60;;
68993;SDS011;56054;50.968;5.816;2023-08-12T12:52:56;2.45;;;1.55;;
68993;SDS011;56054;50.968;5.816;2023-08-12T12:56:03;4.10;;;1.48;;
68993;SDS011;56054;50.968;5.816;2023-08-12T12:59:10;4.35;;;1.10;;
68993;SDS011;56054;50.968;5.816;2023-08-12T13:02:17;1.80;;;0.73;;
68993;SDS011;56054;50.968;5.816;2023-08-12T13:05:24;1.25;;;0.82;;
68993;SDS011;56054;50.968;5.816;2023-08-12T13:08:31;3.38;;;0.93;;
68993;SDS011;56054;50.968;5.816;2023-08-12T13:11:38;1.73;;;1.10;;
68993;SDS011;56054;50.968;5.816;2023-08-12T13:14:45;2.15;;;1.20;;
68993;SDS011;56054;50.968;5.816;2023-08-12T13:17:52;3.47;;;1.40;;
68993;SDS011;56054;50.968;5.816;2023-08-12T13:20:59;3.03;;;1.75;;
68993;SDS011;56054;50.968;5.816;2023-08-12T13:24:06;3.33;;;1.40;;
68993;SDS011;56054;50.968;5.816;2023-08-12T13:27:13;4.22;;;1.00;;
68993;SDS011;56054;50.968;5.816;2023-08-12T13:30:20;3.17;;;1.10;;
68993;SDS011;56054;50.968;5.816;2023-08-12T13:33:27;2.13;;;1.02;;
68993;SDS011;56054;50.968;5.816;2023-08-12T13:36:34;2.00;;;1.00;;
68993;SDS011;56054;50.968;5.816;2023-08-12T13:39:41;2.25;;;1.00;;
68993;SDS011;56054;50.968;5.816;2023-08-12T13:42:48;4.13;;;0.77;;
68993;SDS011;56054;50.968;5.816;2023-08-12T13:45:55;6.07;;;1.35;;
68993;SDS011;56054;50.968;5.816;2023-08-12T13:49:02;2.40;;;0.90;;
68993;SDS011;56054;50.968;5.816;2023-08-12T13:52:09;2.95;;;0.80;;
68993;SDS011;56054;50.968;5.816;2023-08-12T13:55:16;4.78;;;0.80;;
68993;SDS011;56054;50.968;5.816;2023-08-12T13:58:23;2.17;;;0.80;;
68993;SDS011;56054;50.968;5.816;2023-08-12T14:01:30;4.72;;;0.80;;
68993;SDS011;56054;50.968;5.816;2023-08-12T14:04:37;2.35;;;0.85;;
68993;SDS011;56054;50.968;5.816;2023-08-12T14:07:44;3.28;;;0.90;;
68993;SDS011;56054;50.968;5.816;2023-08-12T14:10:51;1.73;;;0.80;;
68993;SDS011;56054;50.968;5.816;2023-08-12T14:13:58;6.70;;;1.08;;
68993;SDS011;56054;50.968;5.816;2023-08-12T14:17:05;2.72;;;0.85;;
68993;SDS011;56054;50.968;5.816;2023-08-12T14:20:19;3.03;;;0.90;;
68993;SDS011;56054;50.968;5.816;2023-08-12T14:23:26;1.52;;;1.08;;
68993;SDS011;56054;50.968;5.816;2023-08-12T14:26:33;6.30;;;1.00;;
68993;SDS011;56054;50.968;5.816;2023-08-12T14:29:40;3.42;;;0.73;;
68993;SDS011;56054;50.968;5.816;2023-08-12T14:32:49;4.10;;;0.80;;
68993;SDS011;56054;50.968;5.816;2023-08-12T14:35:59;3.75;;;0.88;;
68993;SDS011;56054;50.968;5.816;2023-08-12T14:39:07;4.38;;;0.90;;
68993;SDS011;56054;50.968;5.816;2023-08-12T14:42:14;3.00;;;0.77;;
68993;SDS011;56054;50.968;5.816;2023-08-12T14:45:21;3.10;;;0.88;;
68993;SDS011;56054;50.968;5.816;2023-08-12T14:48:28;3.72;;;1.10;;
68993;SDS011;56054;50.968;5.816;2023-08-12T14:51:38;4.25;;;1.30;;
68993;SDS011;56054;50.968;5.816;2023-08-12T14:54:45;5.13;;;0.68;;
68993;SDS011;56054;50.968;5.816;2023-08-12T14:57:53;6.55;;;1.42;;
68993;SDS011;56054;50.968;5.816;2023-08-12T15:01:00;4.85;;;1.17;;
68993;SDS011;56054;50.968;5.816;2023-08-12T15:04:07;3.38;;;1.20;;
68993;SDS011;56054;50.968;5.816;2023-08-12T15:07:14;5.28;;;1.17;;
68993;SDS011;56054;50.968;5.816;2023-08-12T15:10:21;3.25;;;1.08;;
68993;SDS011;56054;50.968;5.816;2023-08-12T15:13:28;2.88;;;0.82;;
68993;SDS011;56054;50.968;5.816;2023-08-12T15:16:35;2.55;;;0.90;;
68993;SDS011;56054;50.968;5.816;2023-08-12T15:19:42;6.97;;;1.52;;
68993;SDS011;56054;50.968;5.816;2023-08-12T15:22:49;3.22;;;1.20;;
68993;SDS011;56054;50.968;5.816;2023-08-12T15:25:56;4.15;;;1.27;;
68993;SDS011;56054;50.968;5.816;2023-08-12T15:29:03;3.17;;;1.05;;
68993;SDS011;56054;50.968;5.816;2023-08-12T15:32:10;2.67;;;1.17;;
68993;SDS011;56054;50.968;5.816;2023-08-12T15:35:17;4.55;;;1.20;;
68993;SDS011;56054;50.968;5.816;2023-08-12T15:38:24;5.82;;;1.25;;
68993;SDS011;56054;50.968;5.816;2023-08-12T15:41:31;3.50;;;1.00;;
68993;SDS011;56054;50.968;5.816;2023-08-12T15:44:38;4.53;;;1.27;;
68993;SDS011;56054;50.968;5.816;2023-08-12T15:47:45;4.97;;;1.05;;
68993;SDS011;56054;50.968;5.816;2023-08-12T15:50:52;8.60;;;1.23;;
68993;SDS011;56054;50.968;5.816;2023-08-12T15:53:59;2.88;;;1.05;;
68993;SDS011;56054;50.968;5.816;2023-08-12T15:57:06;3.58;;;1.13;;
68993;SDS011;56054;50.968;5.816;2023-08-12T16:00:13;3.58;;;1.10;;
68993;SDS011;56054;50.968;5.816;2023-08-12T16:03:20;5.00;;;1.10;;
68993;SDS011;56054;50.968;5.816;2023-08-12T16:06:27;2.92;;;1.27;;
68993;SDS011;56054;50.968;5.816;2023-08-12T16:09:34;2.65;;;1.05;;
68993;SDS011;56054;50.968;5.816;2023-08-12T16:12:41;3.72;;;1.25;;
68993;SDS011;56054;50.968;5.816;2023-08-12T16:15:48;3.60;;;1.10;;
68993;SDS011;56054;50.968;5.816;2023-08-12T16:18:55;3.08;;;0.82;;
68993;SDS011;56054;50.968;5.816;2023-08-12T16:22:02;2.83;;;1.10;;
68993;SDS011;56054;50.968;5.816;2023-08-12T16:25:09;3.13;;;0.80;;
68993;SDS011;56054;50.968;5.816;2023-08-12T16:28:16;3.70;;;1.10;;
68993;SDS011;56054;50.968;5.816;2023-08-12T16:31:23;3.20;;;1.10;;
68993;SDS011;56054;50.968;5.816;2023-08-12T16:34:30;4.35;;;1.10;;
68993;SDS011;56054;50.968;5.816;2023-08-12T16:37:37;3.85;;;1.20;;
68993;SDS011;56054;50.968;5.816;2023-08-12T16:40:44;4.15;;;1.15;;
68993;SDS011;56054;50.968;5.816;2023-08-12T16:43:51;2.55;;;0.95;;
68993;SDS011;56054;50.968;5.816;2023-08-12T16:46:58;7.10;;;1.40;;
68993;SDS011;56054;50.968;5.816;2023-08-12T16:50:05;4.18;;;1.27;;
68993;SDS011;56054;50.968;5.816;2023-08-12T16:53:13;5.25;;;1.60;;
68993;SDS011;56054;50.968;5.816;2023-08-12T16:56:20;6.22;;;1.20;;
68993;SDS011;56054;50.968;5.816;2023-08-12T16:59:27;5.78;;;1.30;;
68993;SDS011;56054;50.968;5.816;2023-08-12T17:02:34;3.00;;;1.00;;
68993;SDS011;56054;50.968;5.816;2023-08-12T17:05:41;3.53;;;1.08;;
68993;SDS011;56054;50.968;5.816;2023-08-12T17:08:48;3.58;;;1.10;;
68993;SDS011;56054;50.968;5.816;2023-08-12T17:11:55;5.22;;;1.23;;
68993;SDS011;56054;50.968;5.816;2023-08-12T17:15:02;4.50;;;1.50;;
68993;SDS011;56054;50.968;5.816;2023-08-12T17:18:09;2.15;;;0.90;;
68993;SDS011;56054;50.968;5.816;2023-08-12T17:21:16;4.55;;;1.00;;
68993;SDS011;56054;50.968;5.816;2023-08-12T17:24:23;3.58;;;1.48;;
68993;SDS011;56054;50.968;5.816;2023-08-12T17:27:30;3.08;;;1.13;;
68993;SDS011;56054;50.968;5.816;2023-08-12T17:30:38;3.85;;;1.20;;
68993;SDS011;56054;50.968;5.816;2023-08-12T17:33:45;6.82;;;1.10;;
68993;SDS011;56054;50.968;5.816;2023-08-12T17:36:55;5.55;;;1.23;;
68993;SDS011;56054;50.968;5.816;2023-08-12T17:40:02;4.43;;;1.10;;
68993;SDS011;56054;50.968;5.816;2023-08-12T17:43:09;4.72;;;1.35;;
68993;SDS011;56054;50.968;5.816;2023-08-12T17:46:16;3.53;;;0.93;;
68993;SDS011;56054;50.968;5.816;2023-08-12T17:49:27;2.75;;;1.00;;
68993;SDS011;56054;50.968;5.816;2023-08-12T17:52:35;4.35;;;1.20;;
68993;SDS011;56054;50.968;5.816;2023-08-12T17:55:42;5.88;;;1.50;;
68993;SDS011;56054;50.968;5.816;2023-08-12T17:58:49;5.00;;;1.15;;
68993;SDS011;56054;50.968;5.816;2023-08-12T18:01:56;5.78;;;1.30;;
68993;SDS011;56054;50.968;5.816;2023-08-12T18:05:03;7.05;;;1.45;;
68993;SDS011;56054;50.968;5.816;2023-08-12T18:08:10;4.90;;;1.30;;
68993;SDS011;56054;50.968;5.816;2023-08-12T18:11:17;7.60;;;1.63;;
68993;SDS011;56054;50.968;5.816;2023-08-12T18:14:24;7.65;;;1.50;;
68993;SDS011;56054;50.968;5.816;2023-08-12T18:17:31;5.25;;;1.08;;
68993;SDS011;56054;50.968;5.816;2023-08-12T18:20:38;5.95;;;1.23;;
68993;SDS011;56054;50.968;5.816;2023-08-12T18:23:45;3.50;;;1.00;;
68993;SDS011;56054;50.968;5.816;2023-08-12T18:26:52;6.63;;;1.38;;
68993;SDS011;56054;50.968;5.816;2023-08-12T18:29:59;6.15;;;1.60;;
68993;SDS011;56054;50.968;5.816;2023-08-12T18:33:11;4.80;;;1.15;;
68993;SDS011;56054;50.968;5.816;2023-08-12T18:36:18;4.03;;;1.23;;
68993;SDS011;56054;50.968;5.816;2023-08-12T18:39:25;6.57;;;1.40;;
68993;SDS011;56054;50.968;5.816;2023-08-12T18:42:32;7.10;;;1.40;;